sensor_id;sensor_type;location;lat;lon;timestamp;temperature;humidity
7842;DHT22;3966;51.052;13.820;2023-04-15T00:00:06;7.30;99.90
7842;DHT22;3966;51.052;13.820;2023-04-15T00:02:32;7.30;99.90
7842;DHT22;3966;51.052;13.820;2023-04-15T00:04:58;7.30;99.90
7842;DHT22;3966;51.052;13.820;2023-04-15T00:07:23;7.30;99.90
7842;DHT22;3966;51.052;13.820;2023-04-15T00:09:49;7.30;99.90
7842;DHT22;3966;51.052;13.820;2023-04-15T00:12:14;7.30;99.90
7842;DHT22;3966;51.052;13.820;2023-04-15T00:14:40;7.30;99.90
7842;DHT22;3966;51.052;13.820;2023-04-15T00:17:06;7.30;99.90
7842;DHT22;3966;51.052;13.820;2023-04-15T00:19:31;7.20;99.90
7842;DHT22;3966;51.052;13.820;2023-04-15T00:21:58;7.30;99.90
7842;DHT22;3966;51.052;13.820;2023-04-15T00:24:24;7.20;99.90
7842;DHT22;3966;51.052;13.820;2023-04-15T00:26:49;7.20;99.90
7842;DHT22;3966;51.052;13.820;2023-04-15T00:29:15;7.30;99.90
7842;DHT22;3966;51.052;13.820;2023-04-15T00:31:40;7.30;99.90
7842;DHT22;3966;51.052;13.820;2023-04-15T00:34:07;7.30;99.90
7842;DHT22;3966;51.052;13.820;2023-04-15T00:36:32;7.30;99.90
7842;DHT22;3966;51.052;13.820;2023-04-15T00:38:59;7.40;99.90
7842;DHT22;3966;51.052;13.820;2023-04-15T00:41:25;7.30;99.90
7842;DHT22;3966;51.052;13.820;2023-04-15T00:43:51;7.30;99.90
7842;DHT22;3966;51.052;13.820;2023-04-15T00:46:18;7.20;99.90
7842;DHT22;3966;51.052;13.820;2023-04-15T00:48:45;7.30;99.90
7842;DHT22;3966;51.052;13.820;2023-04-15T00:51:12;7.30;99.90
7842;DHT22;3966;51.052;13.820;2023-04-15T00:53:38;7.30;99.90
7842;DHT22;3966;51.052;13.820;2023-04-15T00:56:04;7.30;99.90
7842;DHT22;3966;51.052;13.820;2023-04-15T00:58:30;7.20;99.90
7842;DHT22;3966;51.052;13.820;2023-04-15T01:00:56;7.30;99.90
7842;DHT22;3966;51.052;13.820;2023-04-15T01:03:22;7.30;99.90
7842;DHT22;3966;51.052;13.820;2023-04-15T01:05:48;7.30;99.90
7842;DHT22;3966;51.052;13.820;2023-04-15T01:08:14;7.40;99.90
7842;DHT22;3966;51.052;13.820;2023-04-15T01:10:40;7.40;99.90
7842;DHT22;3966;51.052;13.820;2023-04-15T01:13:06;7.30;99.90
7842;DHT22;3966;51.052;13.820;2023-04-15T01:15:32;7.30;99.90
7842;DHT22;3966;51.052;13.820;2023-04-15T01:18:00;7.20;99.90
7842;DHT22;3966;51.052;13.820;2023-04-15T01:20:27;7.20;99.90
7842;DHT22;3966;51.052;13.820;2023-04-15T01:22:54;7.20;99.90
7842;DHT22;3966;51.052;13.820;2023-04-15T01:25:33;7.20;99.90
7842;DHT22;3966;51.052;13.820;2023-04-15T01:27:59;7.30;99.90
7842;DHT22;3966;51.052;13.820;2023-04-15T01:30:25;7.30;99.90
7842;DHT22;3966;51.052;13.820;2023-04-15T01:32:52;7.30;99.90
7842;DHT22;3966;51.052;13.820;2023-04-15T01:35:18;7.30;99.90
7842;DHT22;3966;51.052;13.820;2023-04-15T01:37:44;7.30;99.90
7842;DHT22;3966;51.052;13.820;2023-04-15T01:40:10;7.30;99.90
7842;DHT22;3966;51.052;13.820;2023-04-15T01:42:36;7.30;99.90
7842;DHT22;3966;51.052;13.820;2023-04-15T01:45:03;7.30;99.90
7842;DHT22;3966;51.052;13.820;2023-04-15T01:47:28;7.30;99.90
7842;DHT22;3966;51.052;13.820;2023-04-15T01:49:54;7.40;99.90
7842;DHT22;3966;51.052;13.820;2023-04-15T01:52:20;7.40;99.90
7842;DHT22;3966;51.052;13.820;2023-04-15T01:54:46;7.50;99.90
7842;DHT22;3966;51.052;13.820;2023-04-15T01:57:11;7.40;99.90
7842;DHT22;3966;51.052;13.820;2023-04-15T01:59:37;7.50;99.90
7842;DHT22;3966;51.052;13.820;2023-04-15T02:02:03;7.50;99.90
7842;DHT22;3966;51.052;13.820;2023-04-15T02:04:30;7.40;99.90
7842;DHT22;3966;51.052;13.820;2023-04-15T02:06:56;7.40;99.90
7842;DHT22;3966;51.052;13.820;2023-04-15T02:09:21;7.40;99.90
7842;DHT22;3966;51.052;13.820;2023-04-15T02:11:47;7.40;99.90
7842;DHT22;3966;51.052;13.820;2023-04-15T02:14:13;7.40;99.90
7842;DHT22;3966;51.052;13.820;2023-04-15T02:16:38;7.40;99.90
7842;DHT22;3966;51.052;13.820;2023-04-15T02:19:04;7.40;99.90
7842;DHT22;3966;51.052;13.820;2023-04-15T02:21:30;7.40;99.90
7842;DHT22;3966;51.052;13.820;2023-04-15T02:23:56;7.40;99.90
7842;DHT22;3966;51.052;13.820;2023-04-15T02:26:22;7.40;99.90
7842;DHT22;3966;51.052;13.820;2023-04-15T02:28:48;7.50;99.90
7842;DHT22;3966;51.052;13.820;2023-04-15T02:31:15;7.40;99.90
7842;DHT22;3966;51.052;13.820;2023-04-15T02:33:41;7.40;99.90
7842;DHT22;3966;51.052;13.820;2023-04-15T02:36:07;7.40;99.90
7842;DHT22;3966;51.052;13.820;2023-04-15T02:38:34;7.50;99.90
7842;DHT22;3966;51.052;13.820;2023-04-15T02:41:00;7.40;99.90
7842;DHT22;3966;51.052;13.820;2023-04-15T02:43:26;7.30;99.90
7842;DHT22;3966;51.052;13.820;2023-04-15T02:45:51;7.40;99.90
7842;DHT22;3966;51.052;13.820;2023-04-15T02:48:17;7.30;99.90
7842;DHT22;3966;51.052;13.820;2023-04-15T02:50:45;7.30;99.90
7842;DHT22;3966;51.052;13.820;2023-04-15T02:53:11;7.30;99.90
7842;DHT22;3966;51.052;13.820;2023-04-15T02:55:37;7.40;99.90
7842;DHT22;3966;51.052;13.820;2023-04-15T02:58:03;7.40;99.90
7842;DHT22;3966;51.052;13.820;2023-04-15T03:00:29;7.40;99.90
7842;DHT22;3966;51.052;13.820;2023-04-15T03:03:00;7.40;99.90
7842;DHT22;3966;51.052;13.820;2023-04-15T03:05:26;7.40;99.90
7842;DHT22;3966;51.052;13.820;2023-04-15T03:07:52;7.40;99.90
7842;DHT22;3966;51.052;13.820;2023-04-15T03:10:18;7.40;99.90
7842;DHT22;3966;51.052;13.820;2023-04-15T03:12:44;7.50;99.90
7842;DHT22;3966;51.052;13.820;2023-04-15T03:15:10;7.50;99.90
7842;DHT22;3966;51.052;13.820;2023-04-15T03:17:36;7.50;99.90
7842;DHT22;3966;51.052;13.820;2023-04-15T03:20:03;7.50;99.90
7842;DHT22;3966;51.052;13.820;2023-04-15T03:22:33;7.40;99.90
7842;DHT22;3966;51.052;13.820;2023-04-15T03:24:58;7.40;99.90
7842;DHT22;3966;51.052;13.820;2023-04-15T03:27:24;7.40;99.90
7842;DHT22;3966;51.052;13.820;2023-04-15T03:29:50;7.40;99.90
7842;DHT22;3966;51.052;13.820;2023-04-15T03:32:16;7.40;99.90
7842;DHT22;3966;51.052;13.820;2023-04-15T03:34:42;7.40;99.90
7842;DHT22;3966;51.052;13.820;2023-04-15T03:37:08;7.40;99.90
7842;DHT22;3966;51.052;13.820;2023-04-15T03:39:34;7.40;99.90
7842;DHT22;3966;51.052;13.820;2023-04-15T03:42:00;7.50;99.90
7842;DHT22;3966;51.052;13.820;2023-04-15T03:44:26;7.50;99.90
7842;DHT22;3966;51.052;13.820;2023-04-15T03:46:52;7.40;99.90
7842;DHT22;3966;51.052;13.820;2023-04-15T03:49:18;7.40;99.90
7842;DHT22;3966;51.052;13.820;2023-04-15T03:51:44;7.30;99.90
7842;DHT22;3966;51.052;13.820;2023-04-15T03:54:10;7.30;99.90
7842;DHT22;3966;51.052;13.820;2023-04-15T03:56:37;7.30;99.90
7842;DHT22;3966;51.052;13.820;2023-04-15T03:59:03;7.40;99.90
7842;DHT22;3966;51.052;13.820;2023-04-15T04:01:28;7.40;99.90
7842;DHT22;3966;51.052;13.820;2023-04-15T04:03:54;7.40;99.90
7842;DHT22;3966;51.052;13.820;2023-04-15T04:06:20;7.40;99.90
7842;DHT22;3966;51.052;13.820;2023-04-15T04:08:46;7.40;99.90
7842;DHT22;3966;51.052;13.820;2023-04-15T04:11:11;7.40;99.90
7842;DHT22;3966;51.052;13.820;2023-04-15T04:13:37;7.40;99.90
7842;DHT22;3966;51.052;13.820;2023-04-15T04:16:03;7.30;99.90
7842;DHT22;3966;51.052;13.820;2023-04-15T04:18:31;7.40;99.90
7842;DHT22;3966;51.052;13.820;2023-04-15T04:20:56;7.40;99.90
7842;DHT22;3966;51.052;13.820;2023-04-15T04:23:22;7.40;99.90
7842;DHT22;3966;51.052;13.820;2023-04-15T04:25:48;7.50;99.90
7842;DHT22;3966;51.052;13.820;2023-04-15T04:28:13;7.50;99.90
7842;DHT22;3966;51.052;13.820;2023-04-15T04:30:39;7.40;99.90
7842;DHT22;3966;51.052;13.820;2023-04-15T04:33:06;7.40;99.90
7842;DHT22;3966;51.052;13.820;2023-04-15T04:35:31;7.40;99.90
7842;DHT22;3966;51.052;13.820;2023-04-15T04:37:59;7.40;99.90
7842;DHT22;3966;51.052;13.820;2023-04-15T04:40:25;7.40;99.90
7842;DHT22;3966;51.052;13.820;2023-04-15T04:42:52;7.40;99.90
7842;DHT22;3966;51.052;13.820;2023-04-15T04:45:18;7.40;99.90
7842;DHT22;3966;51.052;13.820;2023-04-15T04:47:44;7.40;99.90
7842;DHT22;3966;51.052;13.820;2023-04-15T04:50:11;7.40;99.90
7842;DHT22;3966;51.052;13.820;2023-04-15T04:52:37;7.50;99.90
7842;DHT22;3966;51.052;13.820;2023-04-15T04:55:03;7.60;99.90
7842;DHT22;3966;51.052;13.820;2023-04-15T04:57:28;7.50;99.90
7842;DHT22;3966;51.052;13.820;2023-04-15T04:59:54;7.60;99.90
7842;DHT22;3966;51.052;13.820;2023-04-15T05:02:20;7.60;99.90
7842;DHT22;3966;51.052;13.820;2023-04-15T05:04:46;7.60;99.90
7842;DHT22;3966;51.052;13.820;2023-04-15T05:07:11;7.50;99.90
7842;DHT22;3966;51.052;13.820;2023-04-15T05:09:37;7.50;99.90
7842;DHT22;3966;51.052;13.820;2023-04-15T05:12:03;7.60;99.90
7842;DHT22;3966;51.052;13.820;2023-04-15T05:14:29;7.70;99.90
7842;DHT22;3966;51.052;13.820;2023-04-15T05:16:55;7.70;99.90
7842;DHT22;3966;51.052;13.820;2023-04-15T05:19:21;7.70;99.90
7842;DHT22;3966;51.052;13.820;2023-04-15T05:21:46;7.80;99.90
7842;DHT22;3966;51.052;13.820;2023-04-15T05:24:12;7.90;99.90
7842;DHT22;3966;51.052;13.820;2023-04-15T05:26:38;7.90;99.90
7842;DHT22;3966;51.052;13.820;2023-04-15T05:29:03;7.80;99.90
7842;DHT22;3966;51.052;13.820;2023-04-15T05:31:29;7.90;99.90
7842;DHT22;3966;51.052;13.820;2023-04-15T05:33:55;7.90;99.90
7842;DHT22;3966;51.052;13.820;2023-04-15T05:36:20;7.90;99.90
7842;DHT22;3966;51.052;13.820;2023-04-15T05:38:46;7.90;99.90
7842;DHT22;3966;51.052;13.820;2023-04-15T05:41:12;8.00;99.90
7842;DHT22;3966;51.052;13.820;2023-04-15T05:43:40;7.90;99.90
7842;DHT22;3966;51.052;13.820;2023-04-15T05:46:05;7.90;99.90
7842;DHT22;3966;51.052;13.820;2023-04-15T05:48:31;7.90;99.90
7842;DHT22;3966;51.052;13.820;2023-04-15T05:50:57;8.00;99.90
7842;DHT22;3966;51.052;13.820;2023-04-15T05:53:23;8.00;99.90
7842;DHT22;3966;51.052;13.820;2023-04-15T05:55:48;8.10;99.90
7842;DHT22;3966;51.052;13.820;2023-04-15T05:58:14;8.10;99.90
7842;DHT22;3966;51.052;13.820;2023-04-15T06:00:39;8.10;99.90
7842;DHT22;3966;51.052;13.820;2023-04-15T06:03:05;8.10;99.90
7842;DHT22;3966;51.052;13.820;2023-04-15T06:05:32;8.10;99.90
7842;DHT22;3966;51.052;13.820;2023-04-15T06:07:57;8.10;99.90
7842;DHT22;3966;51.052;13.820;2023-04-15T06:10:23;8.10;99.90
7842;DHT22;3966;51.052;13.820;2023-04-15T06:12:52;8.10;99.90
7842;DHT22;3966;51.052;13.820;2023-04-15T06:15:18;8.10;99.90
7842;DHT22;3966;51.052;13.820;2023-04-15T06:17:44;8.10;99.90
7842;DHT22;3966;51.052;13.820;2023-04-15T06:20:10;8.10;99.90
7842;DHT22;3966;51.052;13.820;2023-04-15T06:22:36;8.10;99.90
7842;DHT22;3966;51.052;13.820;2023-04-15T06:25:04;8.10;99.90
7842;DHT22;3966;51.052;13.820;2023-04-15T06:27:30;8.10;99.90
7842;DHT22;3966;51.052;13.820;2023-04-15T06:29:55;8.10;99.90
7842;DHT22;3966;51.052;13.820;2023-04-15T06:32:21;8.20;99.90
7842;DHT22;3966;51.052;13.820;2023-04-15T06:34:46;8.30;99.90
7842;DHT22;3966;51.052;13.820;2023-04-15T06:37:12;8.20;99.90
7842;DHT22;3966;51.052;13.820;2023-04-15T06:39:41;8.30;99.90
7842;DHT22;3966;51.052;13.820;2023-04-15T06:42:07;8.40;99.90
7842;DHT22;3966;51.052;13.820;2023-04-15T06:44:33;8.40;99.90
7842;DHT22;3966;51.052;13.820;2023-04-15T06:47:00;8.30;99.90
7842;DHT22;3966;51.052;13.820;2023-04-15T06:49:25;8.30;99.90
7842;DHT22;3966;51.052;13.820;2023-04-15T06:51:51;8.20;99.90
7842;DHT22;3966;51.052;13.820;2023-04-15T06:54:17;8.30;99.90
7842;DHT22;3966;51.052;13.820;2023-04-15T06:56:43;8.30;99.90
7842;DHT22;3966;51.052;13.820;2023-04-15T06:59:08;8.40;99.90
7842;DHT22;3966;51.052;13.820;2023-04-15T07:01:34;8.40;99.90
7842;DHT22;3966;51.052;13.820;2023-04-15T07:04:00;8.40;99.90
7842;DHT22;3966;51.052;13.820;2023-04-15T07:06:26;8.40;99.90
7842;DHT22;3966;51.052;13.820;2023-04-15T07:08:52;8.40;99.90
7842;DHT22;3966;51.052;13.820;2023-04-15T07:11:19;8.40;99.90
7842;DHT22;3966;51.052;13.820;2023-04-15T07:13:45;8.50;99.90
7842;DHT22;3966;51.052;13.820;2023-04-15T07:16:11;8.40;99.90
7842;DHT22;3966;51.052;13.820;2023-04-15T07:18:37;8.40;99.90
7842;DHT22;3966;51.052;13.820;2023-04-15T07:21:02;8.50;99.90
7842;DHT22;3966;51.052;13.820;2023-04-15T07:23:28;8.50;99.90
7842;DHT22;3966;51.052;13.820;2023-04-15T07:25:54;8.60;99.90
7842;DHT22;3966;51.052;13.820;2023-04-15T07:28:20;8.70;99.90
7842;DHT22;3966;51.052;13.820;2023-04-15T07:30:46;8.60;99.90
7842;DHT22;3966;51.052;13.820;2023-04-15T07:33:14;8.60;99.90
7842;DHT22;3966;51.052;13.820;2023-04-15T07:35:40;8.70;99.90
7842;DHT22;3966;51.052;13.820;2023-04-15T07:38:05;8.70;99.90
7842;DHT22;3966;51.052;13.820;2023-04-15T07:40:31;8.70;99.90
7842;DHT22;3966;51.052;13.820;2023-04-15T07:42:57;8.70;99.90
7842;DHT22;3966;51.052;13.820;2023-04-15T07:45:23;8.70;99.90
7842;DHT22;3966;51.052;13.820;2023-04-15T07:47:49;8.80;99.90
7842;DHT22;3966;51.052;13.820;2023-04-15T07:50:15;8.80;99.90
7842;DHT22;3966;51.052;13.820;2023-04-15T07:52:42;8.90;99.90
7842;DHT22;3966;51.052;13.820;2023-04-15T07:55:08;9.00;99.90
7842;DHT22;3966;51.052;13.820;2023-04-15T07:57:35;9.00;99.90
7842;DHT22;3966;51.052;13.820;2023-04-15T08:00:01;9.10;99.90
7842;DHT22;3966;51.052;13.820;2023-04-15T08:02:30;9.20;99.90
7842;DHT22;3966;51.052;13.820;2023-04-15T08:04:56;9.20;99.90
7842;DHT22;3966;51.052;13.820;2023-04-15T08:07:22;9.30;99.90
7842;DHT22;3966;51.052;13.820;2023-04-15T08:09:48;9.20;99.90
7842;DHT22;3966;51.052;13.820;2023-04-15T08:12:13;9.30;99.90
7842;DHT22;3966;51.052;13.820;2023-04-15T08:14:40;9.30;99.90
7842;DHT22;3966;51.052;13.820;2023-04-15T08:17:06;9.30;99.90
7842;DHT22;3966;51.052;13.820;2023-04-15T08:19:31;9.30;99.90
7842;DHT22;3966;51.052;13.820;2023-04-15T08:21:58;9.50;99.90
7842;DHT22;3966;51.052;13.820;2023-04-15T08:24:24;9.60;99.90
7842;DHT22;3966;51.052;13.820;2023-04-15T08:26:51;9.50;99.90
7842;DHT22;3966;51.052;13.820;2023-04-15T08:29:16;9.50;99.90
7842;DHT22;3966;51.052;13.820;2023-04-15T08:31:42;9.70;99.90
7842;DHT22;3966;51.052;13.820;2023-04-15T08:34:10;9.80;99.90
7842;DHT22;3966;51.052;13.820;2023-04-15T08:36:35;9.90;99.90
7842;DHT22;3966;51.052;13.820;2023-04-15T08:39:01;9.90;99.90
7842;DHT22;3966;51.052;13.820;2023-04-15T08:41:39;9.80;99.90
7842;DHT22;3966;51.052;13.820;2023-04-15T08:44:05;9.80;99.90
7842;DHT22;3966;51.052;13.820;2023-04-15T08:46:32;9.90;99.90
7842;DHT22;3966;51.052;13.820;2023-04-15T08:49:03;9.70;99.90
7842;DHT22;3966;51.052;13.820;2023-04-15T08:51:30;9.50;99.90
7842;DHT22;3966;51.052;13.820;2023-04-15T08:53:56;9.50;99.90
7842;DHT22;3966;51.052;13.820;2023-04-15T08:56:24;9.40;99.90
7842;DHT22;3966;51.052;13.820;2023-04-15T08:58:51;9.30;99.90
7842;DHT22;3966;51.052;13.820;2023-04-15T09:01:17;9.20;99.90
7842;DHT22;3966;51.052;13.820;2023-04-15T09:03:43;9.10;99.90
7842;DHT22;3966;51.052;13.820;2023-04-15T09:06:10;9.10;99.90
7842;DHT22;3966;51.052;13.820;2023-04-15T09:08:36;9.00;99.90
7842;DHT22;3966;51.052;13.820;2023-04-15T09:11:02;9.10;99.90
7842;DHT22;3966;51.052;13.820;2023-04-15T09:13:28;9.20;99.90
7842;DHT22;3966;51.052;13.820;2023-04-15T09:15:54;9.10;99.90
7842;DHT22;3966;51.052;13.820;2023-04-15T09:20:54;9.20;99.90
7842;DHT22;3966;51.052;13.820;2023-04-15T09:23:20;9.10;99.90
7842;DHT22;3966;51.052;13.820;2023-04-15T09:25:46;9.10;99.90
7842;DHT22;3966;51.052;13.820;2023-04-15T09:28:13;9.10;99.90
7842;DHT22;3966;51.052;13.820;2023-04-15T09:30:42;9.10;99.90
7842;DHT22;3966;51.052;13.820;2023-04-15T09:33:13;9.10;99.90
7842;DHT22;3966;51.052;13.820;2023-04-15T09:35:39;9.20;99.90
7842;DHT22;3966;51.052;13.820;2023-04-15T09:38:07;9.20;99.90
7842;DHT22;3966;51.052;13.820;2023-04-15T09:40:40;9.30;99.90
7842;DHT22;3966;51.052;13.820;2023-04-15T09:43:07;9.30;99.90
7842;DHT22;3966;51.052;13.820;2023-04-15T09:45:34;9.40;99.90
7842;DHT22;3966;51.052;13.820;2023-04-15T09:48:21;9.40;99.90
7842;DHT22;3966;51.052;13.820;2023-04-15T09:50:50;9.40;99.90
7842;DHT22;3966;51.052;13.820;2023-04-15T09:53:22;9.40;99.90
7842;DHT22;3966;51.052;13.820;2023-04-15T09:55:56;9.50;99.90
7842;DHT22;3966;51.052;13.820;2023-04-15T09:58:27;9.50;99.90
7842;DHT22;3966;51.052;13.820;2023-04-15T10:00:54;9.50;99.90
7842;DHT22;3966;51.052;13.820;2023-04-15T10:03:23;9.60;99.90
7842;DHT22;3966;51.052;13.820;2023-04-15T10:05:51;9.50;99.90
7842;DHT22;3966;51.052;13.820;2023-04-15T10:08:19;9.50;99.90
7842;DHT22;3966;51.052;13.820;2023-04-15T10:10:45;9.50;99.90
7842;DHT22;3966;51.052;13.820;2023-04-15T10:13:17;9.50;99.90
7842;DHT22;3966;51.052;13.820;2023-04-15T10:15:44;9.50;99.90
7842;DHT22;3966;51.052;13.820;2023-04-15T10:18:14;9.50;99.90
7842;DHT22;3966;51.052;13.820;2023-04-15T10:20:41;9.50;99.90
7842;DHT22;3966;51.052;13.820;2023-04-15T10:23:08;9.50;99.90
7842;DHT22;3966;51.052;13.820;2023-04-15T10:25:34;9.40;99.90
7842;DHT22;3966;51.052;13.820;2023-04-15T10:28:01;9.50;99.90
7842;DHT22;3966;51.052;13.820;2023-04-15T10:30:28;9.50;99.90
7842;DHT22;3966;51.052;13.820;2023-04-15T10:32:54;9.50;99.90
7842;DHT22;3966;51.052;13.820;2023-04-15T10:35:21;9.50;99.90
7842;DHT22;3966;51.052;13.820;2023-04-15T10:37:47;9.60;99.90
7842;DHT22;3966;51.052;13.820;2023-04-15T10:42:59;9.50;99.90
7842;DHT22;3966;51.052;13.820;2023-04-15T10:45:36;9.60;99.90
7842;DHT22;3966;51.052;13.820;2023-04-15T10:48:04;9.60;99.90
7842;DHT22;3966;51.052;13.820;2023-04-15T10:50:31;9.60;99.90
7842;DHT22;3966;51.052;13.820;2023-04-15T10:52:57;9.70;99.90
7842;DHT22;3966;51.052;13.820;2023-04-15T10:55:29;9.80;99.90
7842;DHT22;3966;51.052;13.820;2023-04-15T10:58:00;9.80;99.90
7842;DHT22;3966;51.052;13.820;2023-04-15T11:00:31;9.80;99.90
7842;DHT22;3966;51.052;13.820;2023-04-15T11:08:08;10.10;99.90
7842;DHT22;3966;51.052;13.820;2023-04-15T11:13:04;10.20;99.90
7842;DHT22;3966;51.052;13.820;2023-04-15T11:15:39;10.20;99.90
7842;DHT22;3966;51.052;13.820;2023-04-15T11:20:46;10.20;99.90
7842;DHT22;3966;51.052;13.820;2023-04-15T11:23:13;10.10;99.90
7842;DHT22;3966;51.052;13.820;2023-04-15T11:25:39;10.00;99.90
7842;DHT22;3966;51.052;13.820;2023-04-15T11:28:05;10.10;99.90
7842;DHT22;3966;51.052;13.820;2023-04-15T11:30:36;10.10;99.90
7842;DHT22;3966;51.052;13.820;2023-04-15T11:33:04;10.10;99.90
7842;DHT22;3966;51.052;13.820;2023-04-15T11:35:30;10.10;99.90
7842;DHT22;3966;51.052;13.820;2023-04-15T11:37:56;10.20;99.90
7842;DHT22;3966;51.052;13.820;2023-04-15T11:40:24;10.20;99.90
7842;DHT22;3966;51.052;13.820;2023-04-15T11:43:08;10.10;99.90
7842;DHT22;3966;51.052;13.820;2023-04-15T11:45:35;10.10;99.90
7842;DHT22;3966;51.052;13.820;2023-04-15T11:50:31;10.30;99.90
7842;DHT22;3966;51.052;13.820;2023-04-15T11:52:58;10.20;99.90
7842;DHT22;3966;51.052;13.820;2023-04-15T11:55:25;10.20;99.90
7842;DHT22;3966;51.052;13.820;2023-04-15T11:58:06;10.30;99.90
7842;DHT22;3966;51.052;13.820;2023-04-15T12:00:33;10.40;99.90
7842;DHT22;3966;51.052;13.820;2023-04-15T12:03:21;10.40;99.90
7842;DHT22;3966;51.052;13.820;2023-04-15T12:09:10;10.50;99.90
7842;DHT22;3966;51.052;13.820;2023-04-15T12:14:46;10.40;99.90
7842;DHT22;3966;51.052;13.820;2023-04-15T12:17:12;10.40;99.90
7842;DHT22;3966;51.052;13.820;2023-04-15T12:19:40;10.50;99.90
7842;DHT22;3966;51.052;13.820;2023-04-15T12:22:16;10.50;99.90
7842;DHT22;3966;51.052;13.820;2023-04-15T12:24:43;10.50;99.90
7842;DHT22;3966;51.052;13.820;2023-04-15T12:27:11;10.60;99.90
7842;DHT22;3966;51.052;13.820;2023-04-15T12:29:39;10.60;99.90
7842;DHT22;3966;51.052;13.820;2023-04-15T12:32:15;10.70;99.90
7842;DHT22;3966;51.052;13.820;2023-04-15T12:34:49;10.70;99.90
7842;DHT22;3966;51.052;13.820;2023-04-15T12:37:15;10.60;99.90
7842;DHT22;3966;51.052;13.820;2023-04-15T12:39:43;10.70;99.90
7842;DHT22;3966;51.052;13.820;2023-04-15T12:42:09;10.70;99.90
7842;DHT22;3966;51.052;13.820;2023-04-15T12:44:36;10.70;99.90
7842;DHT22;3966;51.052;13.820;2023-04-15T12:47:03;10.60;99.90
7842;DHT22;3966;51.052;13.820;2023-04-15T12:49:30;10.60;99.90
7842;DHT22;3966;51.052;13.820;2023-04-15T12:51:57;10.60;99.90
7842;DHT22;3966;51.052;13.820;2023-04-15T12:54:24;10.60;99.90
7842;DHT22;3966;51.052;13.820;2023-04-15T12:56:51;10.70;99.90
7842;DHT22;3966;51.052;13.820;2023-04-15T12:59:17;10.70;99.90
7842;DHT22;3966;51.052;13.820;2023-04-15T13:01:44;10.70;99.90
7842;DHT22;3966;51.052;13.820;2023-04-15T13:04:10;10.80;99.90
7842;DHT22;3966;51.052;13.820;2023-04-15T13:06:36;10.80;99.90
7842;DHT22;3966;51.052;13.820;2023-04-15T13:09:03;10.90;99.90
7842;DHT22;3966;51.052;13.820;2023-04-15T13:11:29;10.90;99.90
7842;DHT22;3966;51.052;13.820;2023-04-15T13:14:06;10.90;99.90
7842;DHT22;3966;51.052;13.820;2023-04-15T13:16:33;11.00;99.90
7842;DHT22;3966;51.052;13.820;2023-04-15T13:19:00;11.00;99.90
7842;DHT22;3966;51.052;13.820;2023-04-15T13:21:26;10.90;99.90
7842;DHT22;3966;51.052;13.820;2023-04-15T13:23:53;11.00;99.90
7842;DHT22;3966;51.052;13.820;2023-04-15T13:26:18;11.10;99.90
7842;DHT22;3966;51.052;13.820;2023-04-15T13:28:45;11.20;99.90
7842;DHT22;3966;51.052;13.820;2023-04-15T13:31:12;11.10;99.90
7842;DHT22;3966;51.052;13.820;2023-04-15T13:33:38;11.30;99.90
7842;DHT22;3966;51.052;13.820;2023-04-15T13:36:04;11.40;99.90
7842;DHT22;3966;51.052;13.820;2023-04-15T13:38:31;11.50;99.90
7842;DHT22;3966;51.052;13.820;2023-04-15T13:40:56;11.50;99.90
7842;DHT22;3966;51.052;13.820;2023-04-15T13:43:22;11.40;99.90
7842;DHT22;3966;51.052;13.820;2023-04-15T13:45:48;11.50;99.90
7842;DHT22;3966;51.052;13.820;2023-04-15T13:48:14;11.60;99.90
7842;DHT22;3966;51.052;13.820;2023-04-15T13:50:40;11.80;99.90
7842;DHT22;3966;51.052;13.820;2023-04-15T13:53:10;11.90;99.90
7842;DHT22;3966;51.052;13.820;2023-04-15T13:55:35;11.80;99.90
7842;DHT22;3966;51.052;13.820;2023-04-15T13:58:03;11.80;99.90
7842;DHT22;3966;51.052;13.820;2023-04-15T14:00:28;11.70;99.90
7842;DHT22;3966;51.052;13.820;2023-04-15T14:02:54;11.80;99.90
7842;DHT22;3966;51.052;13.820;2023-04-15T14:05:20;11.90;99.90
7842;DHT22;3966;51.052;13.820;2023-04-15T14:07:45;11.80;99.90
7842;DHT22;3966;51.052;13.820;2023-04-15T14:10:11;11.90;99.90
7842;DHT22;3966;51.052;13.820;2023-04-15T14:12:37;11.90;99.90
7842;DHT22;3966;51.052;13.820;2023-04-15T14:15:02;11.90;99.90
7842;DHT22;3966;51.052;13.820;2023-04-15T14:17:28;11.80;99.90
7842;DHT22;3966;51.052;13.820;2023-04-15T14:19:54;11.70;99.90
7842;DHT22;3966;51.052;13.820;2023-04-15T14:22:20;11.80;99.90
7842;DHT22;3966;51.052;13.820;2023-04-15T14:24:45;11.60;99.90
7842;DHT22;3966;51.052;13.820;2023-04-15T14:27:13;11.70;99.90
7842;DHT22;3966;51.052;13.820;2023-04-15T14:29:39;11.70;99.90
7842;DHT22;3966;51.052;13.820;2023-04-15T14:32:05;11.70;99.90
7842;DHT22;3966;51.052;13.820;2023-04-15T14:34:31;11.70;99.90
7842;DHT22;3966;51.052;13.820;2023-04-15T14:36:56;11.70;99.90
7842;DHT22;3966;51.052;13.820;2023-04-15T14:39:22;11.70;99.90
7842;DHT22;3966;51.052;13.820;2023-04-15T14:41:48;11.80;99.90
7842;DHT22;3966;51.052;13.820;2023-04-15T14:44:13;11.90;99.90
7842;DHT22;3966;51.052;13.820;2023-04-15T14:46:39;12.00;99.90
7842;DHT22;3966;51.052;13.820;2023-04-15T14:49:07;12.00;99.90
7842;DHT22;3966;51.052;13.820;2023-04-15T14:51:33;12.00;99.90
7842;DHT22;3966;51.052;13.820;2023-04-15T14:53:59;12.10;99.90
7842;DHT22;3966;51.052;13.820;2023-04-15T14:56:25;12.00;99.90
7842;DHT22;3966;51.052;13.820;2023-04-15T14:58:50;12.10;99.90
7842;DHT22;3966;51.052;13.820;2023-04-15T15:01:18;12.30;99.90
7842;DHT22;3966;51.052;13.820;2023-04-15T15:03:44;12.30;99.90
7842;DHT22;3966;51.052;13.820;2023-04-15T15:06:09;12.30;99.90
7842;DHT22;3966;51.052;13.820;2023-04-15T15:08:35;12.10;99.90
7842;DHT22;3966;51.052;13.820;2023-04-15T15:11:01;12.00;99.90
7842;DHT22;3966;51.052;13.820;2023-04-15T15:13:27;11.90;99.90
7842;DHT22;3966;51.052;13.820;2023-04-15T15:15:53;12.00;99.90
7842;DHT22;3966;51.052;13.820;2023-04-15T15:18:18;12.00;99.90
7842;DHT22;3966;51.052;13.820;2023-04-15T15:20:44;11.80;99.90
7842;DHT22;3966;51.052;13.820;2023-04-15T15:23:10;11.90;99.90
7842;DHT22;3966;51.052;13.820;2023-04-15T15:25:35;11.80;99.90
7842;DHT22;3966;51.052;13.820;2023-04-15T15:28:01;11.90;99.90
7842;DHT22;3966;51.052;13.820;2023-04-15T15:30:27;12.10;99.90
7842;DHT22;3966;51.052;13.820;2023-04-15T15:32:52;12.20;99.90
7842;DHT22;3966;51.052;13.820;2023-04-15T15:35:18;12.30;99.90
7842;DHT22;3966;51.052;13.820;2023-04-15T15:37:45;12.40;99.90
7842;DHT22;3966;51.052;13.820;2023-04-15T15:40:11;12.30;99.90
7842;DHT22;3966;51.052;13.820;2023-04-15T15:42:37;12.30;99.90
7842;DHT22;3966;51.052;13.820;2023-04-15T15:45:03;12.30;99.90
7842;DHT22;3966;51.052;13.820;2023-04-15T15:47:29;12.10;99.90
7842;DHT22;3966;51.052;13.820;2023-04-15T15:49:55;11.90;99.90
7842;DHT22;3966;51.052;13.820;2023-04-15T15:52:21;11.90;99.90
7842;DHT22;3966;51.052;13.820;2023-04-15T15:54:47;11.90;99.90
7842;DHT22;3966;51.052;13.820;2023-04-15T15:57:12;11.90;99.90
7842;DHT22;3966;51.052;13.820;2023-04-15T15:59:38;11.90;99.90
7842;DHT22;3966;51.052;13.820;2023-04-15T16:02:10;11.90;99.90
7842;DHT22;3966;51.052;13.820;2023-04-15T16:04:37;11.90;99.90
7842;DHT22;3966;51.052;13.820;2023-04-15T16:07:03;11.90;99.90
7842;DHT22;3966;51.052;13.820;2023-04-15T16:09:29;11.90;99.90
7842;DHT22;3966;51.052;13.820;2023-04-15T16:11:56;11.90;99.90
7842;DHT22;3966;51.052;13.820;2023-04-15T16:14:23;11.90;99.90
7842;DHT22;3966;51.052;13.820;2023-04-15T16:16:50;11.80;99.90